createdAt,value
2016-11-26T00:00:36.738Z,0
2016-11-26T00:01:36.545Z,0
2016-11-26T00:02:36.770Z,0
2016-11-26T00:03:36.479Z,0
2016-11-26T00:04:36.873Z,0
2016-11-26T00:05:36.527Z,0
2016-11-26T00:06:37.157Z,0
2016-11-26T00:07:37.183Z,0
2016-11-26T00:08:37.293Z,0
2016-11-26T00:09:36.935Z,0
2016-11-26T00:10:36.918Z,0
2016-11-26T00:11:36.990Z,0
2016-11-26T00:12:36.639Z,0
2016-11-26T00:13:37.290Z,0
2016-11-26T00:14:37.314Z,0
2016-11-26T00:15:36.719Z,0
2016-11-26T00:16:37.459Z,0
2016-11-26T00:17:37.370Z,0
2016-11-26T00:18:37.092Z,0
2016-11-26T00:19:37.418Z,0
2016-11-26T00:20:37.158Z,0
2016-11-26T00:21:37.128Z,0
2016-11-26T00:22:37.479Z,0
2016-11-26T00:23:37.411Z,0
2016-11-26T00:24:37.221Z,0
2016-11-26T00:25:37.511Z,0
2016-11-26T00:26:37.660Z,0
2016-11-26T00:27:37.575Z,0
2016-11-26T00:28:37.258Z,0
2016-11-26T00:29:36.999Z,0
2016-11-26T00:30:37.303Z,0
2016-11-26T00:31:37.112Z,0
2016-11-26T00:32:37.388Z,0
2016-11-26T00:33:37.407Z,0
2016-11-26T00:34:37.700Z,0
2016-11-26T00:35:37.695Z,0
2016-11-26T00:36:52.294Z,0
2016-11-26T00:37:37.463Z,0
2016-11-26T00:38:37.752Z,0
2016-11-26T00:39:37.145Z,0
2016-11-26T00:40:37.474Z,0
2016-11-26T00:41:37.492Z,0
2016-11-26T00:42:37.529Z,0
2016-11-26T00:43:37.533Z,0
2016-11-26T00:44:37.868Z,0
2016-11-26T00:45:37.251Z,0
2016-11-26T00:46:37.597Z,0
2016-11-26T00:47:37.285Z,0
2016-11-26T00:48:37.936Z,0
2016-11-26T00:49:37.642Z,0
2016-11-26T00:50:37.665Z,0
2016-11-26T00:51:37.993Z,0
2016-11-26T00:52:37.435Z,0
2016-11-26T00:53:38.034Z,0
2016-11-26T00:54:37.444Z,0
2016-11-26T00:55:37.749Z,0
2016-11-26T00:56:37.766Z,0
2016-11-26T00:57:37.469Z,0
2016-11-26T00:58:38.121Z,0
2016-11-26T00:59:37.825Z,0
2016-11-26T01:00:38.157Z,0
2016-11-26T01:01:37.859Z,0
2016-11-26T01:02:38.088Z,0
2016-11-26T01:03:37.581Z,0
2016-11-26T01:04:37.927Z,0
2016-11-26T01:05:37.937Z,0
2016-11-26T01:06:37.634Z,0
2016-11-26T01:07:38.287Z,0
2016-11-26T01:08:38.314Z,0
2016-11-26T01:09:38.022Z,0
2016-11-26T01:10:38.026Z,0
2016-11-26T01:11:38.051Z,0
2016-11-26T01:12:38.378Z,0
2016-11-26T01:13:38.083Z,0
2016-11-26T01:14:38.413Z,0
2016-11-26T01:15:38.434Z,0
2016-11-26T01:16:38.449Z,0
2016-11-26T01:17:37.842Z,0
2016-11-26T01:18:38.176Z,0
2016-11-26T01:19:38.217Z,0
2016-11-26T01:20:38.535Z,0
2016-11-26T01:21:38.226Z,0
2016-11-26T01:22:38.244Z,0
2016-11-26T01:23:38.579Z,0
2016-11-26T01:24:38.304Z,0
2016-11-26T01:25:38.298Z,0
2016-11-26T01:26:38.971Z,0
2016-11-26T01:27:38.337Z,0
2016-11-26T01:28:38.044Z,0
2016-11-26T01:29:39.009Z,0
2016-11-26T01:30:38.738Z,0
2016-11-26T01:31:38.735Z,0
2016-11-26T01:32:38.107Z,0
2016-11-26T01:33:38.761Z,0
2016-11-26T01:34:38.777Z,0
2016-11-26T01:35:38.503Z,0
2016-11-26T01:36:38.837Z,0
2016-11-26T01:37:38.518Z,0
2016-11-26T01:38:38.849Z,0
2016-11-26T01:39:38.562Z,0
2016-11-26T01:40:38.580Z,0
2016-11-26T01:41:38.616Z,0
2016-11-26T01:42:38.941Z,0
2016-11-26T01:43:39.271Z,0
2016-11-26T01:44:39.288Z,0
2016-11-26T01:45:38.365Z,0
2016-11-26T01:46:38.749Z,0
2016-11-26T01:47:38.402Z,0
2016-11-26T01:48:39.038Z,0
2016-11-26T01:49:38.745Z,0
2016-11-26T01:50:38.762Z,0
2016-11-26T01:51:39.211Z,0
2016-11-26T01:52:38.502Z,0
2016-11-26T01:53:38.508Z,0
2016-11-26T01:54:38.886Z,0
2016-11-26T01:55:38.848Z,0
2016-11-26T01:56:39.219Z,0
2016-11-26T01:57:39.205Z,0
2016-11-26T01:58:38.902Z,0
2016-11-26T01:59:38.918Z,0
2016-11-26T02:00:38.621Z,0
2016-11-26T02:01:38.643Z,0
2016-11-26T02:02:39.334Z,0
2016-11-26T02:03:39.313Z,0
2016-11-26T02:04:39.332Z,0
2016-11-26T02:05:39.036Z,0
2016-11-26T02:06:39.406Z,0
2016-11-26T02:07:39.074Z,0
2016-11-26T02:08:39.403Z,0
2016-11-26T02:09:39.760Z,0
2016-11-26T02:10:39.124Z,0
2016-11-26T02:11:38.918Z,0
2016-11-26T02:12:38.840Z,0
2016-11-26T02:13:39.177Z,0
2016-11-26T02:14:39.204Z,0
2016-11-26T02:15:39.214Z,0
2016-11-26T02:16:39.544Z,0
2016-11-26T02:17:38.930Z,0
2016-11-26T02:18:39.905Z,0
2016-11-26T02:19:39.284Z,0
2016-11-26T02:20:39.030Z,0
2016-11-26T02:21:39.060Z,0
2016-11-26T02:22:39.020Z,0
2016-11-26T02:23:39.364Z,0
2016-11-26T02:24:39.086Z,0
2016-11-26T02:25:40.590Z,0
2016-11-26T02:26:40.156Z,0
2016-11-26T02:27:40.115Z,0
2016-11-26T02:28:39.933Z,0
2016-11-26T02:29:40.229Z,0
2016-11-26T02:30:39.173Z,0
2016-11-26T02:31:39.501Z,0
2016-11-26T02:32:39.873Z,0
2016-11-26T02:33:40.187Z,0
2016-11-26T02:34:39.559Z,0
2016-11-26T02:35:39.572Z,0
2016-11-26T02:36:39.604Z,0
2016-11-26T02:37:39.934Z,0
2016-11-26T02:38:39.627Z,0
2016-11-26T02:39:39.958Z,0
2016-11-26T02:40:39.349Z,0
2016-11-26T02:41:39.719Z,0
2016-11-26T02:42:40.581Z,0
2016-11-26T02:43:40.151Z,0
2016-11-26T02:44:40.062Z,0
2016-11-26T02:45:40.310Z,0
2016-11-26T02:46:40.274Z,0
2016-11-26T02:47:40.331Z,0
2016-11-26T02:48:40.266Z,0
2016-11-26T02:49:40.703Z,0
2016-11-26T02:50:40.692Z,0
2016-11-26T02:51:40.691Z,0
2016-11-26T02:52:40.556Z,0
2016-11-26T02:53:40.040Z,0
2016-11-26T02:54:40.560Z,0
2016-11-26T02:55:41.042Z,0
2016-11-26T02:56:40.463Z,0
2016-11-26T02:57:40.213Z,0
2016-11-26T02:58:40.159Z,0
2016-11-26T02:59:40.631Z,0
2016-11-26T03:00:40.906Z,0
2016-11-26T03:01:40.974Z,0
2016-11-26T03:02:40.848Z,0
2016-11-26T03:03:40.407Z,0
2016-11-26T03:04:40.418Z,0
2016-11-26T03:05:40.109Z,0
2016-11-26T03:06:40.765Z,0
2016-11-26T03:07:40.153Z,0
2016-11-26T03:08:40.167Z,0
2016-11-26T03:09:40.500Z,0
2016-11-26T03:10:40.215Z,0
2016-11-26T03:11:40.217Z,0
2016-11-26T03:12:40.236Z,0
2016-11-26T03:13:40.273Z,0
2016-11-26T03:14:40.588Z,0
2016-11-26T03:15:40.692Z,0
2016-11-26T03:16:39.997Z,0
2016-11-26T03:17:40.331Z,0
2016-11-26T03:18:40.346Z,0
2016-11-26T03:19:40.381Z,0
2016-11-26T03:20:40.393Z,0
2016-11-26T03:21:40.406Z,0
2016-11-26T03:22:40.732Z,0
2016-11-26T03:23:40.436Z,0
2016-11-26T03:24:40.770Z,0
2016-11-26T03:25:40.159Z,0
2016-11-26T03:26:40.176Z,0
2016-11-26T03:27:40.841Z,0
2016-11-26T03:28:40.839Z,0
2016-11-26T03:29:40.544Z,0
2016-11-26T03:30:41.193Z,0
2016-11-26T03:31:40.897Z,0
2016-11-26T03:32:41.233Z,0
2016-11-26T03:33:41.248Z,0
2016-11-26T03:34:40.319Z,0
2016-11-26T03:35:40.969Z,0
2016-11-26T03:36:40.990Z,0
2016-11-26T03:37:41.002Z,0
2016-11-26T03:38:40.711Z,0
2016-11-26T03:39:40.725Z,0
2016-11-26T03:40:41.059Z,0
2016-11-26T03:41:40.758Z,0
2016-11-26T03:42:41.093Z,0
2016-11-26T03:43:41.116Z,0
2016-11-26T03:44:41.127Z,0
2016-11-26T03:45:40.521Z,0
2016-11-26T03:46:40.537Z,0
2016-11-26T03:47:40.553Z,0
2016-11-26T03:48:40.888Z,0
2016-11-26T03:49:40.914Z,0
2016-11-26T03:50:41.235Z,0
2016-11-26T03:51:55.837Z,0
2016-11-26T03:52:41.271Z,0
2016-11-26T03:53:41.295Z,0
2016-11-26T03:54:41.308Z,0
2016-11-26T03:55:40.696Z,0
2016-11-26T03:56:40.714Z,0
2016-11-26T03:57:41.362Z,0
2016-11-26T03:58:41.067Z,0
2016-11-26T03:59:41.409Z,0
2016-11-26T04:00:40.788Z,0
2016-11-26T04:01:41.434Z,0
2016-11-26T04:02:41.458Z,0
2016-11-26T04:03:41.160Z,0
2016-11-26T04:04:41.174Z,0
2016-11-26T04:05:41.191Z,0
2016-11-26T04:06:40.892Z,0
2016-11-26T04:07:41.234Z,0
2016-11-26T04:08:41.253Z,0
2016-11-26T04:09:41.258Z,0
2016-11-26T04:10:41.282Z,0
2016-11-26T04:11:41.932Z,0
2016-11-26T04:12:41.951Z,0
2016-11-26T04:13:41.675Z,0
2016-11-26T04:14:41.039Z,0
2016-11-26T04:15:41.061Z,0
2016-11-26T04:16:41.069Z,0
2016-11-26T04:17:41.086Z,0
2016-11-26T04:18:41.438Z,0
2016-11-26T04:19:41.438Z,0
2016-11-26T04:20:41.455Z,0
2016-11-26T04:21:41.789Z,0
2016-11-26T04:22:41.181Z,0
2016-11-26T04:23:41.827Z,0
2016-11-26T04:24:41.240Z,0
2016-11-26T04:25:41.576Z,0
2016-11-26T04:26:41.257Z,0
2016-11-26T04:27:41.272Z,0
2016-11-26T04:28:41.295Z,0
2016-11-26T04:29:41.617Z,0
2016-11-26T04:30:41.638Z,0
2016-11-26T04:31:42.287Z,0
2016-11-26T04:32:41.674Z,0
2016-11-26T04:33:41.368Z,0
2016-11-26T04:34:41.391Z,0
2016-11-26T04:35:42.048Z,0
2016-11-26T04:36:41.741Z,0
2016-11-26T04:37:42.071Z,0
2016-11-26T04:38:41.470Z,0
2016-11-26T04:39:41.480Z,0
2016-11-26T04:40:42.135Z,0
2016-11-26T04:41:42.147Z,0
2016-11-26T04:42:41.856Z,0
2016-11-26T04:43:41.869Z,0
2016-11-26T04:44:41.889Z,0
2016-11-26T04:45:42.220Z,0
2016-11-26T04:46:41.605Z,0
2016-11-26T04:47:42.577Z,0
2016-11-26T04:48:41.958Z,0
2016-11-26T04:49:41.976Z,0
2016-11-26T04:50:41.998Z,0
2016-11-26T04:51:42.643Z,0
2016-11-26T04:52:42.346Z,0
2016-11-26T04:53:42.363Z,0
2016-11-26T04:54:42.064Z,0
2016-11-26T04:55:42.404Z,0
2016-11-26T04:56:41.781Z,0
2016-11-26T04:57:42.123Z,0
2016-11-26T04:58:42.140Z,0
2016-11-26T04:59:42.469Z,0
2016-11-26T05:00:42.485Z,0
2016-11-26T05:01:42.513Z,0
2016-11-26T05:02:42.529Z,0
2016-11-26T05:03:42.234Z,0
2016-11-26T05:04:42.253Z,0
2016-11-26T05:05:41.948Z,0
2016-11-26T05:06:42.600Z,0
2016-11-26T05:07:42.614Z,0
2016-11-26T05:08:42.349Z,0
2016-11-26T05:09:42.337Z,0
2016-11-26T05:10:42.359Z,0
2016-11-26T05:11:42.369Z,0
2016-11-26T05:12:42.071Z,0
2016-11-26T05:13:42.733Z,0
2016-11-26T05:14:42.115Z,0
2016-11-26T05:15:42.446Z,0
2016-11-26T05:16:42.147Z,0
2016-11-26T05:17:42.794Z,0
2016-11-26T05:18:42.813Z,0
2016-11-26T05:19:42.203Z,0
2016-11-26T05:20:42.533Z,0
2016-11-26T05:21:42.577Z,0
2016-11-26T05:22:42.250Z,0
2016-11-26T05:23:42.901Z,0
2016-11-26T05:24:42.296Z,0
2016-11-26T05:25:42.321Z,0
2016-11-26T05:26:42.645Z,0
2016-11-26T05:27:42.972Z,0
2016-11-26T05:28:42.695Z,0
2016-11-26T05:29:42.693Z,0
2016-11-26T05:30:43.029Z,0
2016-11-26T05:31:43.049Z,0
2016-11-26T05:32:42.756Z,0
2016-11-26T05:33:42.772Z,0
2016-11-26T05:34:43.101Z,0
2016-11-26T05:35:42.803Z,0
2016-11-26T05:36:43.136Z,0
2016-11-26T05:37:42.521Z,0
2016-11-26T05:38:43.171Z,0
2016-11-26T05:39:42.560Z,0
2016-11-26T05:40:43.206Z,0
2016-11-26T05:41:42.621Z,0
2016-11-26T05:42:42.625Z,0
2016-11-26T05:43:42.946Z,0
2016-11-26T05:44:42.960Z,0
2016-11-26T05:45:42.665Z,0
2016-11-26T05:46:42.998Z,0
2016-11-26T05:47:43.126Z,0
2016-11-26T05:48:43.054Z,0
2016-11-26T05:49:42.749Z,0
2016-11-26T05:50:43.071Z,0
2016-11-26T05:51:43.086Z,0
2016-11-26T05:52:43.418Z,0
2016-11-26T05:53:42.805Z,0
2016-11-26T05:54:42.838Z,0
2016-11-26T05:55:43.155Z,0
2016-11-26T05:56:43.489Z,0
2016-11-26T05:57:43.189Z,0
2016-11-26T05:58:43.212Z,0
2016-11-26T05:59:42.915Z,0
2016-11-26T06:00:43.562Z,0
2016-11-26T06:01:42.951Z,0
2016-11-26T06:02:43.627Z,0
2016-11-26T06:03:43.302Z,0
2016-11-26T06:04:43.959Z,0
2016-11-26T06:05:43.772Z,0
2016-11-26T06:06:43.673Z,0
2016-11-26T06:07:43.685Z,0
2016-11-26T06:08:43.069Z,0
2016-11-26T06:09:43.442Z,0
2016-11-26T06:10:43.107Z,0
2016-11-26T06:11:43.762Z,0
2016-11-26T06:12:43.774Z,0
2016-11-26T06:13:43.165Z,0
2016-11-26T06:14:44.123Z,0
2016-11-26T06:15:43.823Z,0
2016-11-26T06:16:43.533Z,0
2016-11-26T06:17:43.880Z,0
2016-11-26T06:18:43.257Z,0
2016-11-26T06:19:44.215Z,0
2016-11-26T06:20:43.954Z,0
2016-11-26T06:21:43.934Z,0
2016-11-26T06:22:43.949Z,0
2016-11-26T06:23:43.338Z,0
2016-11-26T06:24:43.988Z,0
2016-11-26T06:25:44.003Z,0
2016-11-26T06:26:43.388Z,0
2016-11-26T06:27:44.033Z,0
2016-11-26T06:28:44.055Z,0
2016-11-26T06:29:43.440Z,0
2016-11-26T06:30:43.796Z,0
2016-11-26T06:31:43.475Z,0
2016-11-26T06:32:43.829Z,0
2016-11-26T06:33:43.839Z,0
2016-11-26T06:34:43.840Z,0
2016-11-26T06:35:43.862Z,0
2016-11-26T06:36:43.577Z,4
2016-11-26T06:37:44.210Z,4
2016-11-26T06:38:43.606Z,4
2016-11-26T06:39:43.947Z,4
2016-11-26T06:40:43.964Z,4
2016-11-26T06:41:44.664Z,4
2016-11-26T06:42:43.987Z,4
2016-11-26T06:43:43.687Z,4
2016-11-26T06:44:43.707Z,0
2016-11-26T06:45:44.352Z,4
2016-11-26T06:46:43.738Z,4
2016-11-26T06:47:44.395Z,4
2016-11-26T06:48:44.094Z,4
2016-11-26T06:49:44.108Z,4
2016-11-26T06:50:44.122Z,4
2016-11-26T06:51:43.822Z,8
2016-11-26T06:52:44.164Z,4
2016-11-26T06:53:44.211Z,4
2016-11-26T06:54:44.512Z,4
2016-11-26T06:55:44.212Z,8
2016-11-26T06:56:43.915Z,8
2016-11-26T06:57:44.561Z,4
2016-11-26T06:58:44.901Z,8
2016-11-26T06:59:44.912Z,8
2016-11-26T07:00:44.298Z,8
2016-11-26T07:01:44.631Z,12
2016-11-26T07:02:44.336Z,8
2016-11-26T07:03:44.354Z,12
2016-11-26T07:04:44.689Z,12
2016-11-26T07:05:44.384Z,8
2016-11-26T07:06:44.403Z,12
2016-11-26T07:07:44.104Z,12
2016-11-26T07:08:44.123Z,12
2016-11-26T07:09:44.140Z,12
2016-11-26T07:10:44.789Z,12
2016-11-26T07:11:44.173Z,16
2016-11-26T07:12:45.187Z,16
2016-11-26T07:13:44.847Z,16
2016-11-26T07:14:44.547Z,12
2016-11-26T07:15:44.560Z,16
2016-11-26T07:16:44.575Z,16
2016-11-26T07:17:44.596Z,16
2016-11-26T07:18:44.927Z,16
2016-11-26T07:19:44.971Z,12
2016-11-26T07:20:44.336Z,12
2016-11-26T07:21:44.668Z,16
2016-11-26T07:22:44.705Z,16
2016-11-26T07:23:44.699Z,16
2016-11-26T07:24:44.739Z,16
2016-11-26T07:25:44.744Z,16
2016-11-26T07:26:44.759Z,16
2016-11-26T07:27:44.769Z,20
2016-11-26T07:28:44.467Z,20
2016-11-26T07:29:44.487Z,20
2016-11-26T07:30:44.817Z,16
2016-11-26T07:31:44.544Z,16
2016-11-26T07:32:44.556Z,16
2016-11-26T07:33:45.195Z,16
2016-11-26T07:34:45.207Z,16
2016-11-26T07:35:45.221Z,20
2016-11-26T07:36:44.613Z,16
2016-11-26T07:37:44.942Z,20
2016-11-26T07:38:44.648Z,20
2016-11-26T07:39:44.972Z,20
2016-11-26T07:40:45.312Z,24
2016-11-26T07:41:44.693Z,20
2016-11-26T07:42:45.032Z,20
2016-11-26T07:43:44.729Z,20
2016-11-26T07:44:44.754Z,24
2016-11-26T07:45:45.083Z,20
2016-11-26T07:46:44.789Z,24
2016-11-26T07:47:45.749Z,24
2016-11-26T07:48:45.132Z,20
2016-11-26T07:49:45.156Z,20
2016-11-26T07:50:44.856Z,24
2016-11-26T07:51:45.529Z,28
2016-11-26T07:52:45.519Z,28
2016-11-26T07:53:45.212Z,28
2016-11-26T07:54:45.574Z,28
2016-11-26T07:55:44.936Z,28
2016-11-26T07:56:45.270Z,28
2016-11-26T07:57:45.291Z,32
2016-11-26T07:58:44.990Z,28
2016-11-26T07:59:45.009Z,28
2016-11-26T08:00:45.025Z,28
2016-11-26T08:01:45.698Z,28
2016-11-26T08:02:45.690Z,28
2016-11-26T08:03:45.707Z,28
2016-11-26T08:04:45.094Z,24
2016-11-26T08:05:46.058Z,28
2016-11-26T08:06:45.458Z,28
2016-11-26T08:07:45.807Z,28
2016-11-26T08:08:45.801Z,32
2016-11-26T08:09:45.182Z,32
2016-11-26T08:10:45.515Z,32
2016-11-26T08:11:45.882Z,32
2016-11-26T08:12:45.233Z,36
2016-11-26T08:13:45.250Z,36
2016-11-26T08:14:45.584Z,40
2016-11-26T08:15:45.918Z,40
2016-11-26T08:16:45.620Z,40
2016-11-26T08:17:45.957Z,40
2016-11-26T08:18:45.653Z,44
2016-11-26T08:19:45.985Z,40
2016-11-26T08:20:46.322Z,40
2016-11-26T08:21:45.707Z,40
2016-11-26T08:22:45.725Z,40
2016-11-26T08:23:45.428Z,40
2016-11-26T08:24:45.780Z,40
2016-11-26T08:25:46.087Z,40
2016-11-26T08:26:45.790Z,44
2016-11-26T08:27:46.122Z,44
2016-11-26T08:28:45.513Z,44
2016-11-26T08:29:45.844Z,48
2016-11-26T08:30:45.549Z,44
2016-11-26T08:31:45.565Z,44
2016-11-26T08:32:45.944Z,44
2016-11-26T08:33:45.599Z,48
2016-11-26T08:34:46.566Z,44
2016-11-26T08:35:45.955Z,48
2016-11-26T08:36:45.979Z,52
2016-11-26T08:37:46.308Z,52
2016-11-26T08:38:46.004Z,56
2016-11-26T08:39:45.712Z,56
2016-11-26T08:40:45.759Z,60
2016-11-26T08:41:46.375Z,64
2016-11-26T08:42:46.078Z,64
2016-11-26T08:43:46.098Z,64
2016-11-26T08:44:46.421Z,64
2016-11-26T08:45:46.807Z,64
2016-11-26T08:46:46.485Z,64
2016-11-26T08:47:45.851Z,64
2016-11-26T08:48:46.200Z,64
2016-11-26T08:49:46.212Z,60
2016-11-26T08:50:46.534Z,60
2016-11-26T08:51:46.266Z,64
2016-11-26T08:52:45.939Z,68
2016-11-26T08:53:46.612Z,72
2016-11-26T08:54:46.322Z,72
2016-11-26T08:55:46.616Z,76
2016-11-26T08:56:46.640Z,80
2016-11-26T08:57:46.659Z,84
2016-11-26T08:58:46.985Z,88
2016-11-26T08:59:46.387Z,80
2016-11-26T09:00:46.397Z,72
2016-11-26T09:01:46.741Z,72
2016-11-26T09:02:46.744Z,76
2016-11-26T09:03:47.083Z,76
2016-11-26T09:04:46.158Z,84
2016-11-26T09:05:46.164Z,92
2016-11-26T09:06:46.182Z,92
2016-11-26T09:07:46.833Z,88
2016-11-26T09:08:46.699Z,84
2016-11-26T09:09:46.874Z,80
2016-11-26T09:10:46.570Z,84
2016-11-26T09:11:46.594Z,80
2016-11-26T09:12:46.292Z,84
2016-11-26T09:13:46.939Z,80
2016-11-26T09:14:46.368Z,84
2016-11-26T09:15:46.677Z,84
2016-11-26T09:16:46.373Z,84
2016-11-26T09:17:47.332Z,76
2016-11-26T09:18:47.027Z,72
2016-11-26T09:19:47.047Z,68
2016-11-26T09:20:46.751Z,72
2016-11-26T09:21:46.454Z,76
2016-11-26T09:22:47.100Z,80
2016-11-26T09:23:47.127Z,72
2016-11-26T09:24:46.501Z,60
2016-11-26T09:25:47.153Z,56
2016-11-26T09:26:46.538Z,52
2016-11-26T09:27:47.516Z,48
2016-11-26T09:28:46.887Z,52
2016-11-26T09:29:46.911Z,48
2016-11-26T09:30:46.927Z,52
2016-11-26T09:31:46.951Z,56
2016-11-26T09:32:46.670Z,64
2016-11-26T09:33:46.662Z,68
2016-11-26T09:34:47.313Z,64
2016-11-26T09:35:47.022Z,60
2016-11-26T09:36:47.345Z,56
2016-11-26T09:37:47.051Z,52
2016-11-26T09:38:47.393Z,52
2016-11-26T09:39:47.404Z,52
2016-11-26T09:40:47.102Z,56
2016-11-26T09:41:46.820Z,60
2016-11-26T09:42:47.136Z,68
2016-11-26T09:43:47.482Z,72
2016-11-26T09:44:47.174Z,76
2016-11-26T09:45:46.887Z,80
2016-11-26T09:46:47.536Z,84
2016-11-26T09:47:47.896Z,84
2016-11-26T09:48:47.245Z,88
2016-11-26T09:49:47.592Z,88
2016-11-26T09:50:47.281Z,84
2016-11-26T09:51:47.618Z,88
2016-11-26T09:52:47.651Z,92
2016-11-26T09:53:47.023Z,96
2016-11-26T09:54:47.354Z,88
2016-11-26T09:55:47.387Z,88
2016-11-26T09:56:47.404Z,88
2016-11-26T09:57:47.413Z,88
2016-11-26T09:58:47.435Z,92
2016-11-26T09:59:48.131Z,92
2016-11-26T10:00:47.466Z,100
2016-11-26T10:01:48.112Z,96
2016-11-26T10:02:47.807Z,100
2016-11-26T10:04:02.740Z,100
2016-11-26T10:04:47.535Z,104
2016-11-26T10:05:47.240Z,104
2016-11-26T10:06:48.193Z,100
2016-11-26T10:07:47.918Z,100
2016-11-26T10:08:47.285Z,104
2016-11-26T10:09:47.624Z,116
2016-11-26T10:10:47.958Z,124
2016-11-26T10:11:47.682Z,132
2016-11-26T10:12:47.710Z,136
2016-11-26T10:13:47.401Z,152
2016-11-26T10:14:47.711Z,156
2016-11-26T10:15:47.755Z,160
2016-11-26T10:16:48.058Z,164
2016-11-26T10:17:47.454Z,160
2016-11-26T10:18:48.095Z,156
2016-11-26T10:19:47.821Z,160
2016-11-26T10:20:48.131Z,164
2016-11-26T10:21:47.528Z,164
2016-11-26T10:22:47.873Z,164
2016-11-26T10:23:47.568Z,164
2016-11-26T10:24:47.580Z,168
2016-11-26T10:25:48.226Z,168
2016-11-26T10:26:47.923Z,160
2016-11-26T10:27:47.946Z,156
2016-11-26T10:28:47.962Z,144
2016-11-26T10:29:48.011Z,140
2016-11-26T10:30:48.631Z,136
2016-11-26T10:31:48.011Z,132
2016-11-26T10:32:48.381Z,128
2016-11-26T10:33:47.761Z,128
2016-11-26T10:34:48.072Z,132
2016-11-26T10:35:48.089Z,132
2016-11-26T10:36:48.425Z,136
2016-11-26T10:37:48.445Z,132
2016-11-26T10:38:48.457Z,128
2016-11-26T10:39:48.474Z,124
2016-11-26T10:40:48.181Z,116
2016-11-26T10:41:48.201Z,112
2016-11-26T10:42:48.224Z,104
2016-11-26T10:43:48.556Z,104
2016-11-26T10:44:48.249Z,96
2016-11-26T10:45:48.271Z,92
2016-11-26T10:46:48.287Z,96
2016-11-26T10:47:48.953Z,92
2016-11-26T10:48:48.322Z,84
2016-11-26T10:49:48.028Z,80
2016-11-26T10:50:48.362Z,76
2016-11-26T10:51:48.069Z,76
2016-11-26T10:52:48.713Z,76
2016-11-26T10:53:48.100Z,76
2016-11-26T10:54:48.433Z,84
2016-11-26T10:55:48.452Z,84
2016-11-26T10:56:48.156Z,88
2016-11-26T10:57:48.179Z,84
2016-11-26T10:58:48.825Z,88
2016-11-26T10:59:48.845Z,84
2016-11-26T11:00:48.547Z,80
2016-11-26T11:01:48.893Z,76
2016-11-26T11:02:48.894Z,72
2016-11-26T11:03:48.667Z,72
2016-11-26T11:04:48.622Z,72
2016-11-26T11:05:48.951Z,72
2016-11-26T11:06:49.047Z,68
2016-11-26T11:07:49.319Z,68
2016-11-26T11:08:49.005Z,64
2016-11-26T11:09:48.399Z,68
2016-11-26T11:10:48.723Z,68
2016-11-26T11:11:48.742Z,68
2016-11-26T11:12:48.760Z,68
2016-11-26T11:13:48.783Z,64
2016-11-26T11:14:48.808Z,68
2016-11-26T11:15:49.152Z,72
2016-11-26T11:16:49.141Z,72
2016-11-26T11:17:48.534Z,76
2016-11-26T11:18:49.505Z,76
2016-11-26T11:19:49.220Z,80
2016-11-26T11:20:48.586Z,80
2016-11-26T11:21:48.633Z,84
2016-11-26T11:22:48.635Z,84
2016-11-26T11:23:49.274Z,88
2016-11-26T11:24:48.978Z,80
2016-11-26T11:25:49.319Z,80
2016-11-26T11:26:49.017Z,76
2016-11-26T11:27:49.667Z,80
2016-11-26T11:28:49.041Z,80
2016-11-26T11:29:49.388Z,88
2016-11-26T11:30:49.088Z,100
2016-11-26T11:31:49.110Z,112
2016-11-26T11:32:49.440Z,120
2016-11-26T11:33:49.161Z,116
2016-11-26T11:34:49.189Z,112
2016-11-26T11:35:49.061Z,108
2016-11-26T11:36:49.513Z,108
2016-11-26T11:37:49.559Z,108
2016-11-26T11:38:49.548Z,104
2016-11-26T11:39:48.935Z,96
2016-11-26T11:40:49.580Z,92
2016-11-26T11:41:49.913Z,84
2016-11-26T11:42:49.318Z,84
2016-11-26T11:43:49.007Z,68
2016-11-26T11:44:49.037Z,60
2016-11-26T11:45:49.389Z,60
2016-11-26T11:46:49.373Z,60
2016-11-26T11:47:49.710Z,60
2016-11-26T11:48:49.726Z,64
2016-11-26T11:49:49.112Z,68
2016-11-26T11:50:49.134Z,72
2016-11-26T11:51:49.467Z,76
2016-11-26T11:52:50.112Z,76
2016-11-26T11:53:49.841Z,76
2016-11-26T11:54:49.829Z,72
2016-11-26T11:55:49.877Z,72
2016-11-26T11:56:49.553Z,76
2016-11-26T11:57:49.568Z,88
2016-11-26T11:58:49.901Z,96
2016-11-26T11:59:49.604Z,116
2016-11-26T12:00:49.643Z,132
2016-11-26T12:01:49.953Z,136
2016-11-26T12:02:50.015Z,132
2016-11-26T12:03:49.362Z,132
2016-11-26T12:04:49.697Z,128
2016-11-26T12:05:50.031Z,132
2016-11-26T12:06:49.443Z,132
2016-11-26T12:07:50.062Z,136
2016-11-26T12:08:49.763Z,136
2016-11-26T12:09:49.470Z,136
2016-11-26T12:10:49.490Z,132
2016-11-26T12:11:49.819Z,128
2016-11-26T12:12:50.153Z,124
2016-11-26T12:13:50.172Z,116
2016-11-26T12:15:49.575Z,92
2016-11-26T12:16:50.224Z,84
2016-11-26T12:17:49.930Z,76
2016-11-26T12:18:49.944Z,72
2016-11-26T12:19:50.303Z,68
2016-11-26T12:20:49.980Z,64
2016-11-26T12:21:50.004Z,60
2016-11-26T12:22:50.345Z,60
2016-11-26T12:23:50.035Z,60
2016-11-26T12:24:50.370Z,52
2016-11-26T12:25:50.072Z,56
2016-11-26T12:26:50.408Z,56
2016-11-26T12:27:50.420Z,52
2016-11-26T12:28:50.124Z,52
2016-11-26T12:29:50.468Z,52
2016-11-26T12:30:50.471Z,52
2016-11-26T12:31:50.182Z,52
2016-11-26T12:32:49.881Z,56
2016-11-26T12:33:50.536Z,56
2016-11-26T12:34:50.551Z,60
2016-11-26T12:35:50.565Z,60
2016-11-26T12:36:50.274Z,64
2016-11-26T12:37:50.282Z,68
2016-11-26T12:38:50.305Z,72
2016-11-26T12:39:50.990Z,80
2016-11-26T12:40:50.355Z,88
2016-11-26T12:41:50.045Z,88
2016-11-26T12:42:50.698Z,88
2016-11-26T12:43:50.404Z,92
2016-11-26T12:44:50.750Z,92
2016-11-26T12:45:51.065Z,92
2016-11-26T12:46:50.448Z,92
2016-11-26T12:47:51.105Z,88
2016-11-26T12:48:50.169Z,88
2016-11-26T12:49:50.854Z,84
2016-11-26T12:50:50.839Z,80
2016-11-26T12:51:50.542Z,80
2016-11-26T12:52:50.557Z,76
2016-11-26T12:53:50.591Z,72
2016-11-26T12:54:50.626Z,68
2016-11-26T12:55:51.272Z,68
2016-11-26T12:56:50.633Z,64
2016-11-26T12:57:50.332Z,64
2016-11-26T12:58:50.671Z,56
2016-11-26T12:59:50.385Z,56
2016-11-26T13:00:50.805Z,56
2016-11-26T13:01:51.036Z,52
2016-11-26T13:02:51.056Z,56
2016-11-26T13:03:51.070Z,52
2016-11-26T13:04:51.089Z,52
2016-11-26T13:05:51.108Z,48
2016-11-26T13:06:50.820Z,48
2016-11-26T13:07:50.518Z,48
2016-11-26T13:08:51.166Z,48
2016-11-26T13:09:51.184Z,44
2016-11-26T13:10:51.201Z,44
2016-11-26T13:11:50.584Z,44
2016-11-26T13:12:50.616Z,44
2016-11-26T13:13:51.255Z,44
2016-11-26T13:14:50.956Z,48
2016-11-26T13:15:50.997Z,44
2016-11-26T13:16:50.688Z,44
2016-11-26T13:17:51.009Z,52
2016-11-26T13:18:51.344Z,52
2016-11-26T13:19:50.733Z,52
2016-11-26T13:20:50.748Z,52
2016-11-26T13:21:51.100Z,56
2016-11-26T13:22:51.102Z,52
2016-11-26T13:23:51.431Z,52
2016-11-26T13:24:51.141Z,48
2016-11-26T13:25:51.466Z,48
2016-11-26T13:26:51.490Z,48
2016-11-26T13:27:51.507Z,44
2016-11-26T13:28:51.842Z,44
2016-11-26T13:29:51.281Z,40
2016-11-26T13:30:51.567Z,40
2016-11-26T13:31:51.576Z,40
2016-11-26T13:32:51.278Z,48
2016-11-26T13:33:51.302Z,56
2016-11-26T13:35:51.650Z,60
2016-11-26T13:36:51.049Z,48
2016-11-26T13:37:51.053Z,48
2016-11-26T13:38:51.443Z,52
2016-11-26T13:39:51.094Z,56
2016-11-26T13:40:51.450Z,56
2016-11-26T13:41:51.185Z,60
2016-11-26T13:42:51.795Z,64
2016-11-26T13:43:52.117Z,72
2016-11-26T13:44:51.578Z,68
2016-11-26T13:45:51.875Z,64
2016-11-26T13:46:51.902Z,56
2016-11-26T13:47:52.210Z,52
2016-11-26T13:48:52.045Z,52
2016-11-26T13:49:51.596Z,48
2016-11-26T13:50:51.615Z,40
2016-11-26T13:51:51.714Z,40
2016-11-26T13:52:52.284Z,44
2016-11-26T13:53:51.388Z,44
2016-11-26T13:54:51.676Z,40
2016-11-26T13:55:51.384Z,40
2016-11-26T13:56:51.786Z,40
2016-11-26T13:57:51.740Z,40
2016-11-26T13:58:51.776Z,40
2016-11-26T13:59:51.773Z,40
2016-11-26T14:00:51.796Z,40
2016-11-26T14:01:51.493Z,40
2016-11-26T14:02:52.148Z,44
2016-11-26T14:03:51.950Z,44
2016-11-26T14:04:52.185Z,48
2016-11-26T14:05:51.882Z,52
2016-11-26T14:06:51.617Z,52
2016-11-26T14:07:51.920Z,48
2016-11-26T14:08:51.943Z,52
2016-11-26T14:09:51.954Z,52
2016-11-26T14:10:51.656Z,56
2016-11-26T14:11:52.018Z,56
2016-11-26T14:12:52.006Z,56
2016-11-26T14:13:52.059Z,56
2016-11-26T14:14:52.390Z,56
2016-11-26T14:15:52.373Z,52
2016-11-26T14:16:52.710Z,48
2016-11-26T14:17:52.090Z,44
2016-11-26T14:18:52.459Z,44
2016-11-26T14:19:52.147Z,44
2016-11-26T14:20:52.175Z,44
2016-11-26T14:21:52.580Z,40
2016-11-26T14:22:52.194Z,40
2016-11-26T14:23:52.280Z,44
2016-11-26T14:24:51.966Z,36
2016-11-26T14:25:52.284Z,36
2016-11-26T14:26:52.289Z,32
2016-11-26T14:27:52.611Z,32
2016-11-26T14:28:52.298Z,28
2016-11-26T14:29:51.996Z,28
2016-11-26T14:30:52.645Z,24